Time;durP1;ratioP1;P1;durP2;ratioP2;P2;SDS_P1;SDS_P2;PMS_P1;PMS_P2;Temp;Humidity;BMP_temperature;BMP_pressure;BME280_temperature;BME280_humidity;BME280_pressure;Samples;Min_cycle;Max_cycle;Signal;HPM_P1;HPM_P2
2023/01/27 04:57:14;;;;;;;15.13;7.10;;;;;;;-0.50;100.00;100362.81;5950094;28;20154;-89
2023/01/27 05:00:19;;;;;;;27.45;7.93;;;;;;;-0.55;100.00;100359.66;5344120;33;34824;-89
2023/01/27 05:03:21;;;;;;;16.00;8.05;;;;;;;-0.58;100.00;100346.66;5344721;33;33781;-89
2023/01/27 05:06:25;;;;;;;19.67;7.93;;;;;;;-0.71;100.00;100354.56;5344207;33;34462;-89
2023/01/27 05:09:28;;;;;;;13.60;7.65;;;;;;;-0.71;100.00;100359.88;5344013;33;33393;-89
2023/01/27 05:12:31;;;;;;;16.62;8.40;;;;;;;-0.77;100.00;100360.28;5344236;33;34087;-89
2023/01/27 05:15:34;;;;;;;13.98;7.47;;;;;;;-0.83;100.00;100364.19;5344197;33;34102;-89
2023/01/27 05:18:38;;;;;;;17.12;8.45;;;;;;;-0.60;100.00;100361.78;5344585;33;33135;-89
2023/01/27 05:21:42;;;;;;;19.27;10.43;;;;;;;-0.69;100.00;100357.97;5344301;33;33647;-89
2023/01/27 05:24:45;;;;;;;16.08;7.93;;;;;;;-0.67;100.00;100348.16;5344455;33;34181;-89
2023/01/27 05:27:48;;;;;;;16.98;8.02;;;;;;;-0.70;100.00;100349.19;5344559;33;33685;-89
2023/01/27 05:30:51;;;;;;;13.23;7.35;;;;;;;-0.81;100.00;100349.09;5344782;33;33843;-89
2023/01/27 05:33:55;;;;;;;16.37;8.40;;;;;;;-0.84;100.00;100348.47;5344829;33;33872;-89
2023/01/27 05:37:00;;;;;;;17.80;8.63;;;;;;;-0.86;100.00;100345.91;5344160;33;33703;-88
2023/01/27 05:40:03;;;;;;;13.95;7.65;;;;;;;-0.85;100.00;100352.03;5345361;33;34655;-88
2023/01/27 05:43:06;;;;;;;20.48;8.18;;;;;;;-0.91;100.00;100361.22;5344543;33;33476;-89
2023/01/27 05:46:20;;;;;;;19.65;9.55;;;;;;;-0.94;100.00;100349.09;5344393;33;33717;-89
2023/01/27 05:49:23;;;;;;;17.25;7.62;;;;;;;-0.97;100.00;100354.56;5344582;33;34061;-89
2023/01/27 05:52:26;;;;;;;16.65;8.70;;;;;;;-0.97;100.00;100359.00;5345075;33;33467;-89
2023/01/27 05:55:29;;;;;;;15.43;8.68;;;;;;;-1.02;100.00;100361.97;5346521;33;33601;-88
2023/01/27 05:58:31;;;;;;;16.30;8.50;;;;;;;-1.03;100.00;100354.97;5344281;33;34331;-88
2023/01/27 06:01:36;;;;;;;16.20;7.68;;;;;;;-1.03;100.00;100362.06;5344365;33;33747;-89
2023/01/27 06:04:39;;;;;;;18.02;8.73;;;;;;;-1.04;100.00;100355.09;5343746;33;34158;-89
2023/01/27 06:07:42;;;;;;;17.25;8.70;;;;;;;-1.01;100.00;100352.25;5344585;33;33493;-89
2023/01/27 06:10:45;;;;;;;17.02;8.38;;;;;;;-0.78;100.00;100356.81;5358063;33;34131;-89
2023/01/27 06:13:48;;;;;;;17.20;8.88;;;;;;;-0.81;100.00;100354.38;5352556;33;34332;-89
2023/01/27 06:16:52;;;;;;;19.15;9.05;;;;;;;-0.81;100.00;100349.09;5343720;33;33054;-89
2023/01/27 06:19:55;;;;;;;22.52;8.57;;;;;;;-0.89;100.00;100340.84;5359292;33;33888;-89
2023/01/27 06:22:58;;;;;;;15.07;8.32;;;;;;;-0.92;100.00;100341.06;5352758;33;34584;-89
2023/01/27 06:26:09;;;;;;;15.85;7.82;;;;;;;-0.73;100.00;100341.47;5376752;28;34811;-90
2023/01/27 06:29:13;;;;;;;16.55;8.32;;;;;;;-0.75;100.00;100342.53;5343108;33;33448;-90
2023/01/27 06:32:15;;;;;;;19.65;8.25;;;;;;;-0.61;100.00;100344.22;5343263;33;33995;-89
2023/01/27 06:35:18;;;;;;;15.23;7.85;;;;;;;-0.64;100.00;100347.06;5347724;33;34194;-89
2023/01/27 06:38:21;;;;;;;18.20;8.23;;;;;;;-0.54;100.00;100350.78;5350720;33;34779;-89
2023/01/27 06:41:24;;;;;;;18.77;8.27;;;;;;;-0.50;100.00;100357.53;5344759;33;33284;-90
2023/01/27 06:44:27;;;;;;;15.15;7.53;;;;;;;-0.52;100.00;100351.50;5345422;33;33734;-90
2023/01/27 06:47:30;;;;;;;16.67;7.47;;;;;;;-0.32;100.00;100358.00;5359968;33;33076;-90
2023/01/27 06:50:33;;;;;;;18.62;8.73;;;;;;;-0.29;100.00;100353.38;5344141;33;34347;-90
2023/01/27 06:53:37;;;;;;;17.67;7.95;;;;;;;-0.24;98.08;100359.16;5344170;33;33602;-90
2023/01/27 06:56:40;;;;;;;14.13;7.32;;;;;;;-0.22;97.89;100356.44;5343304;33;33024;-90
2023/01/27 06:59:43;;;;;;;18.27;7.85;;;;;;;-0.10;97.48;100358.19;5345766;33;33392;-90
2023/01/27 07:02:47;;;;;;;15.75;7.97;;;;;;;-0.06;97.51;100366.75;5345045;33;33130;-90
2023/01/27 07:05:51;;;;;;;15.57;7.40;;;;;;;0.05;94.64;100368.63;5348892;33;128212;-90
2023/01/27 07:08:54;;;;;;;14.10;7.57;;;;;;;0.14;93.67;100357.38;5343178;33;33456;-90
2023/01/27 07:11:57;;;;;;;13.40;7.15;;;;;;;0.25;91.72;100356.59;5345057;33;33761;-90
2023/01/27 07:15:00;;;;;;;13.88;6.97;;;;;;;0.34;93.26;100354.12;5340011;33;33562;-90
2023/01/27 07:18:03;;;;;;;14.00;7.37;;;;;;;0.36;93.46;100356.66;5324163;33;33589;-90
2023/01/27 07:21:06;;;;;;;14.80;7.60;;;;;;;0.53;91.13;100358.06;5325337;33;34436;-90
2023/01/27 07:24:09;;;;;;;14.25;7.40;;;;;;;0.62;91.81;100365.34;5325664;33;33185;-90
2023/01/27 07:27:12;;;;;;;13.32;6.87;;;;;;;0.63;88.29;100370.50;5332644;33;33568;-90
2023/01/27 07:30:16;;;;;;;14.48;7.40;;;;;;;0.90;87.34;100370.22;5353455;33;33600;-90
2023/01/27 07:33:19;;;;;;;14.65;7.68;;;;;;;0.85;87.38;100372.41;5360409;33;33770;-90
2023/01/27 07:36:22;;;;;;;14.20;7.47;;;;;;;0.84;87.76;100373.34;5344014;33;34162;-90
2023/01/27 07:39:25;;;;;;;13.35;7.07;;;;;;;0.80;86.76;100373.69;5352150;33;34626;-90
2023/01/27 07:42:28;;;;;;;14.05;7.68;;;;;;;0.90;84.39;100377.34;5347817;33;33465;-90
2023/01/27 07:45:31;;;;;;;17.50;7.57;;;;;;;0.93;84.94;100365.66;5343742;33;34804;-90
2023/01/27 07:48:34;;;;;;;15.02;7.62;;;;;;;1.00;84.46;100362.44;5343902;33;33679;-90
2023/01/27 07:51:37;;;;;;;16.80;7.87;;;;;;;1.08;82.48;100362.72;5344225;33;33085;-90
2023/01/27 07:54:40;;;;;;;14.02;6.60;;;;;;;0.99;83.12;100351.94;5382032;28;34343;-90
2023/01/27 07:57:42;;;;;;;14.40;7.20;;;;;;;1.07;81.54;100352.19;5343397;33;33657;-90
2023/01/27 08:00:46;;;;;;;14.40;6.87;;;;;;;1.13;81.20;100360.53;5350612;33;34903;-90
2023/01/27 08:03:49;;;;;;;12.45;6.82;;;;;;;1.02;81.60;100360.50;5365455;28;33707;-90
2023/01/27 08:06:52;;;;;;;12.98;6.55;;;;;;;1.05;81.55;100367.38;5335683;33;33626;-90
2023/01/27 08:09:56;;;;;;;12.63;6.57;;;;;;;1.16;80.92;100361.25;5336318;33;34495;-90
2023/01/27 08:12:58;;;;;;;12.43;7.00;;;;;;;1.31;79.54;100375.97;5339333;33;33355;-90
2023/01/27 08:16:07;;;;;;;13.10;7.05;;;;;;;1.42;80.20;100364.53;5327988;33;34954;-90
2023/01/27 08:19:10;;;;;;;12.65;6.55;;;;;;;1.44;80.84;100374.06;5324984;33;33274;-90
2023/01/27 08:22:18;;;;;;;12.90;6.97;;;;;;;1.45;79.73;100364.31;5326324;33;33454;-89
2023/01/27 08:25:21;;;;;;;17.67;6.90;;;;;;;1.37;78.26;100367.53;5325526;33;33932;-90
2023/01/27 08:28:26;;;;;;;13.80;7.32;;;;;;;1.32;79.52;100370.56;5327857;33;32805;-90
2023/01/27 08:31:29;;;;;;;12.65;7.00;;;;;;;1.38;79.00;100376.37;5331688;33;33626;-90
2023/01/27 08:34:32;;;;;;;14.05;7.00;;;;;;;1.43;79.37;100384.78;5339207;33;34488;-90
2023/01/27 08:37:35;;;;;;;14.90;7.40;;;;;;;1.54;79.10;100380.34;5329483;33;35068;-92
2023/01/27 08:40:40;;;;;;;14.13;6.28;;;;;;;1.50;79.55;100381.56;5329198;33;35423;-93
2023/01/27 08:43:45;;;;;;;11.63;6.57;;;;;;;1.52;81.08;100378.75;5339157;33;33291;-91
2023/01/27 08:46:49;;;;;;;12.55;7.30;;;;;;;1.66;79.86;100383.00;5313051;33;33525;-91
2023/01/27 08:49:53;;;;;;;15.73;6.80;;;;;;;1.56;78.83;100388.19;5325979;33;33178;-90
2023/01/27 08:53:00;;;;;;;13.43;6.87;;;;;;;1.68;79.65;100383.75;5324788;33;33662;-90
2023/01/27 08:56:06;;;;;;;13.50;7.60;;;;;;;1.62;75.95;100392.19;5328028;33;34022;-90
2023/01/27 08:59:09;;;;;;;13.38;7.40;;;;;;;1.46;77.67;100387.22;5335843;33;33907;-90
2023/01/27 09:02:13;;;;;;;16.95;7.57;;;;;;;1.46;77.17;100392.50;5327996;33;34635;-90
2023/01/27 09:05:17;;;;;;;16.05;8.07;;;;;;;1.63;79.70;100386.75;5320112;33;33459;-90
2023/01/27 09:08:19;;;;;;;12.52;6.43;;;;;;;1.65;79.91;100383.97;5327651;33;34390;-90
2023/01/27 09:11:22;;;;;;;12.82;7.15;;;;;;;1.85;79.11;100393.88;5324533;33;33674;-90
2023/01/27 09:14:25;;;;;;;11.85;7.43;;;;;;;1.92;77.53;100394.22;5326371;33;33851;-90
2023/01/27 09:17:28;;;;;;;16.33;7.47;;;;;;;1.90;77.30;100389.03;5327330;33;33452;-90
2023/01/27 09:20:33;;;;;;;11.05;5.87;;;;;;;1.97;77.88;100392.87;5326633;33;34020;-90
2023/01/27 09:23:36;;;;;;;13.62;7.10;;;;;;;1.67;76.61;100392.66;5328621;33;33509;-90
2023/01/27 09:26:39;;;;;;;13.35;6.43;;;;;;;1.63;78.43;100393.88;5325812;33;33702;-90
2023/01/27 09:29:42;;;;;;;10.43;5.82;;;;;;;1.68;77.30;100402.31;5321427;33;33038;-90
2023/01/27 09:32:45;;;;;;;13.85;7.43;;;;;;;1.73;77.53;100397.50;5309320;33;33741;-90
2023/01/27 09:35:55;;;;;;;12.35;6.37;;;;;;;1.56;77.36;100407.59;5309013;33;33092;-90
2023/01/27 09:39:03;;;;;;;12.23;6.50;;;;;;;1.63;78.48;100400.00;5312950;33;33990;-90
2023/01/27 09:42:08;;;;;;;9.00;5.93;;;;;;;1.69;80.82;100410.13;5324633;33;35240;-90
2023/01/27 09:45:43;;;;;;;13.52;6.10;;;;;;;1.40;82.95;100407.09;5320888;33;33245;-90
2023/01/27 09:48:48;;;;;;;11.43;5.93;;;;;;;1.47;84.53;100404.84;5321426;33;33532;-90
2023/01/27 09:52:28;;;;;;;10.82;5.45;;;;;;;1.60;86.26;100400.25;5317850;33;34022;-90
2023/01/27 09:55:51;;;;;;;11.82;6.12;;;;;;;1.54;85.38;100406.03;5331130;33;34053;-90
2023/01/27 09:59:15;;;;;;;10.10;5.12;;;;;;;1.48;84.32;100401.22;5332133;33;33331;-90
2023/01/27 10:02:23;;;;;;;12.77;5.00;;;;;;;1.52;84.04;100400.00;5325923;33;33732;-90
2023/01/27 10:06:27;;;;;;;9.23;5.47;;;;;;;1.65;85.07;100399.91;5323744;33;33457;-90
2023/01/27 10:09:42;;;;;;;11.20;6.05;;;;;;;1.67;87.36;100396.16;5243746;33;33322;-90
2023/01/27 10:12:53;;;;;;;14.35;6.07;;;;;;;1.69;85.77;100404.84;5336755;33;34002;-90
2023/01/27 10:16:03;;;;;;;11.23;5.90;;;;;;;1.81;86.85;100403.88;5331947;33;34489;-90
2023/01/27 10:19:30;;;;;;;11.30;5.95;;;;;;;1.78;88.50;100400.59;5325046;33;34237;-90
2023/01/27 10:22:58;;;;;;;9.65;5.57;;;;;;;1.53;89.17;100396.41;5322744;33;34264;-90
2023/01/27 10:26:32;;;;;;;12.35;5.72;;;;;;;1.72;88.40;100396.63;5316328;33;34369;-90
2023/01/27 10:29:40;;;;;;;10.50;5.68;;;;;;;1.62;89.81;100400.16;5326136;33;33472;-90
2023/01/27 10:32:44;;;;;;;9.18;5.43;;;;;;;1.70;90.74;100406.53;5326737;33;34102;-90
2023/01/27 10:35:58;;;;;;;12.60;5.87;;;;;;;1.74;90.58;100400.00;5324696;33;33073;-90
2023/01/27 10:39:16;;;;;;;15.20;6.32;;;;;;;1.80;92.04;100396.87;5326213;33;34114;-90
2023/01/27 10:42:19;;;;;;;9.02;6.00;;;;;;;1.58;90.27;100399.53;5370233;28;33515;-90
2023/01/27 10:45:39;;;;;;;9.27;6.22;;;;;;;1.44;91.69;100395.31;5359433;33;33824;-89
2023/01/27 10:48:57;;;;;;;9.82;6.05;;;;;;;1.56;90.94;100391.69;5367297;28;34106;-90
2023/01/27 10:52:09;;;;;;;11.85;5.72;;;;;;;1.64;90.80;100392.87;5347109;33;34076;-90
2023/01/27 10:55:24;;;;;;;9.57;5.35;;;;;;;1.54;93.58;100385.66;5350632;33;34910;-93
2023/01/27 10:58:36;;;;;;;14.75;6.75;;;;;;;1.46;95.46;100390.69;5344043;33;36110;-90
2023/01/27 11:01:46;;;;;;;8.63;6.28;;;;;;;1.45;95.83;100381.06;5345044;33;33677;-90
2023/01/27 11:04:56;;;;;;;12.63;6.32;;;;;;;1.34;99.21;100375.75;5344084;33;33538;-90
2023/01/27 11:08:06;;;;;;;11.35;6.00;;;;;;;1.18;100.00;100378.75;5345011;33;33111;-90
2023/01/27 11:14:47;;;;;;;11.70;6.07;;;;;;;1.17;100.00;100373.53;5345621;33;33548;-90
2023/01/27 11:18:10;;;;;;;8.20;5.45;;;;;;;0.96;100.00;100371.56;5343713;33;33515;-90
2023/01/27 11:21:23;;;;;;;9.35;5.55;;;;;;;0.93;100.00;100366.50;5338135;33;34225;-90
2023/01/27 11:24:51;;;;;;;8.32;5.80;;;;;;;0.98;100.00;100372.31;5343701;33;33113;-90
2023/01/27 11:27:59;;;;;;;11.60;5.90;;;;;;;1.08;100.00;100362.72;5344291;33;33314;-90
2023/01/27 11:31:33;;;;;;;10.38;6.10;;;;;;;1.08;100.00;100362.72;5344521;33;35069;-93
2023/01/27 11:35:00;;;;;;;10.30;6.30;;;;;;;1.07;100.00;100370.75;5344153;33;34257;-90
2023/01/27 11:38:03;;;;;;;12.65;6.45;;;;;;;1.07;100.00;100361.00;5344084;33;32443;-90
2023/01/27 11:41:17;;;;;;;10.82;6.30;;;;;;;1.17;100.00;100357.62;5347817;33;34252;-90
2023/01/27 11:44:25;;;;;;;12.18;6.72;;;;;;;1.16;100.00;100350.66;5352827;33;33769;-90
2023/01/27 11:47:37;;;;;;;11.63;6.50;;;;;;;1.12;100.00;100350.88;5358227;28;33594;-90
2023/01/27 11:50:44;;;;;;;12.93;7.35;;;;;;;1.05;100.00;100354.12;5328961;33;35029;-90
2023/01/27 11:54:01;;;;;;;14.32;7.43;;;;;;;1.15;100.00;100349.81;5343258;33;33661;-89
2023/01/27 11:57:14;;;;;;;14.25;6.93;;;;;;;1.19;100.00;100342.47;5348599;33;33394;-89
2023/01/27 12:00:23;;;;;;;13.00;6.70;;;;;;;1.11;100.00;100333.31;5345023;33;33602;-89
2023/01/27 12:03:47;;;;;;;13.90;7.18;;;;;;;1.25;100.00;100334.03;5349232;33;33593;-90
2023/01/27 12:07:13;;;;;;;13.10;7.87;;;;;;;1.33;100.00;100331.63;5339702;33;34204;-93
2023/01/27 12:10:36;;;;;;;11.60;7.07;;;;;;;1.31;100.00;100322.94;5332022;33;33952;-90
2023/01/27 12:13:51;;;;;;;11.93;6.70;;;;;;;1.30;100.00;100329.22;5385166;28;33414;-90
2023/01/27 12:21:00;;;;;;;13.52;7.60;;;;;;;1.28;100.00;100320.53;2852398;28;20108;-90
2023/01/27 12:24:06;;;;;;;15.98;7.78;;;;;;;1.24;100.00;100316.44;5385531;28;33858;-90
2023/01/27 12:27:20;;;;;;;15.70;7.57;;;;;;;1.34;100.00;100309.44;5379872;28;34369;-90
2023/01/27 12:30:27;;;;;;;12.95;7.30;;;;;;;1.42;100.00;100309.69;5337955;33;34196;-88
2023/01/27 12:33:32;;;;;;;14.82;7.75;;;;;;;1.62;100.00;100301.97;5344359;33;33524;-88
2023/01/27 12:36:42;;;;;;;15.75;8.50;;;;;;;1.76;100.00;100293.75;5340439;33;34322;-87
2023/01/27 12:39:51;;;;;;;12.50;7.78;;;;;;;1.80;100.00;100300.47;5324978;33;33436;-93
2023/01/27 12:43:00;;;;;;;17.75;8.38;;;;;;;1.73;100.00;100296.66;5325117;33;33601;-90
2023/01/27 12:46:23;;;;;;;16.80;7.62;;;;;;;1.88;100.00;100292.75;5328905;33;33263;-89
2023/01/27 12:49:33;;;;;;;17.55;8.00;;;;;;;1.82;100.00;100298.56;5329939;33;33465;-89
2023/01/27 12:52:35;;;;;;;14.83;7.80;;;;;;;1.35;100.00;100303.19;5337081;33;33624;-88
2023/01/27 12:55:45;;;;;;;15.93;8.45;;;;;;;1.34;100.00;100299.66;5341940;33;33957;-89
2023/01/27 12:58:54;;;;;;;14.27;7.62;;;;;;;1.16;100.00;100298.47;5389469;28;34496;-88
2023/01/27 13:02:17;;;;;;;14.45;7.30;;;;;;;1.19;100.00;100297.38;5334268;33;33164;-88
2023/01/27 13:05:21;;;;;;;13.10;7.60;;;;;;;1.29;100.00;100293.91;5324019;33;33987;-87
2023/01/27 13:08:27;;;;;;;16.87;8.43;;;;;;;1.26;100.00;100298.59;5324800;33;33547;-88
2023/01/27 13:11:36;;;;;;;15.70;8.32;;;;;;;1.27;100.00;100300.28;5334042;33;33426;-88
2023/01/27 13:14:41;;;;;;;13.15;7.80;;;;;;;1.54;100.00;100302.56;5342333;33;34378;-87
2023/01/27 13:17:47;;;;;;;15.30;8.25;;;;;;;1.53;100.00;100299.06;5340614;33;33402;-87
2023/01/27 13:21:22;;;;;;;17.77;8.20;;;;;;;1.53;100.00;100295.59;5329347;33;34124;-89
2023/01/27 13:24:37;;;;;;;14.60;8.43;;;;;;;1.52;100.00;100313.31;5327089;33;33578;-89
2023/01/27 13:27:47;;;;;;;15.40;8.05;;;;;;;1.71;100.00;100323.28;5326629;33;34996;-89
2023/01/27 13:30:55;;;;;;;15.27;8.50;;;;;;;1.69;100.00;100319.06;5328503;33;33784;-89
2023/01/27 13:34:10;;;;;;;14.98;8.13;;;;;;;1.45;100.00;100316.56;5333228;33;33440;-89
2023/01/27 13:37:22;;;;;;;17.15;8.95;;;;;;;1.48;100.00;100316.31;5348547;33;34979;-89
2023/01/27 13:40:43;;;;;;;15.00;7.87;;;;;;;1.65;100.00;100315.00;5344659;33;33369;-89
2023/01/27 13:43:56;;;;;;;16.55;7.97;;;;;;;1.50;100.00;100322.34;5330264;33;34386;-89
2023/01/27 13:47:03;;;;;;;14.20;7.85;;;;;;;1.53;100.00;100317.66;5328068;33;33181;-89
2023/01/27 13:50:21;;;;;;;17.17;8.05;;;;;;;1.44;100.00;100318.37;5327402;33;33828;-89
2023/01/27 13:53:24;;;;;;;14.95;8.48;;;;;;;1.45;100.00;100322.69;5328542;33;34091;-88
2023/01/27 13:56:54;;;;;;;14.55;7.78;;;;;;;1.40;100.00;100330.16;5333826;33;34471;-89
2023/01/27 14:00:09;;;;;;;18.50;8.00;;;;;;;1.47;100.00;100327.91;5336395;33;35019;-89
2023/01/27 14:03:33;;;;;;;15.32;8.18;;;;;;;1.43;100.00;100321.97;5326900;33;33792;-89
2023/01/27 14:06:57;;;;;;;19.35;8.93;;;;;;;1.57;100.00;100313.78;5327327;33;33576;-88
2023/01/27 14:10:34;;;;;;;15.50;7.97;;;;;;;1.56;100.00;100314.75;5334691;33;33502;-89
2023/01/27 14:14:09;;;;;;;13.80;8.52;;;;;;;1.62;100.00;100326.69;5332368;33;33363;-89
2023/01/27 14:17:25;;;;;;;13.55;8.43;;;;;;;1.67;100.00;100319.22;5343538;33;35150;-89
2023/01/27 14:20:55;;;;;;;16.55;8.35;;;;;;;1.73;100.00;100316.06;5343481;33;33157;-88
2023/01/27 14:24:04;;;;;;;;;;;;;;;1.61;100.00;100314.41;5343290;33;34832;-89
2023/01/27 14:27:28;;;;;;;15.52;8.38;;;;;;;1.48;100.00;100314.50;5349125;33;33404;-89
2023/01/27 14:30:38;;;;;;;16.23;8.00;;;;;;;1.40;100.00;100319.56;5338301;33;33622;-89
2023/01/27 14:34:03;;;;;;;13.68;7.35;;;;;;;1.27;100.00;100319.69;5341382;33;33985;-89
2023/01/27 14:37:11;;;;;;;11.45;7.40;;;;;;;1.23;100.00;100323.56;5341675;33;33304;-89
2023/01/27 14:40:17;;;;;;;15.63;8.52;;;;;;;1.18;100.00;100312.44;5342217;33;33928;-89
2023/01/27 14:43:38;;;;;;;14.55;8.05;;;;;;;1.15;100.00;100320.66;5342662;33;33558;-88
2023/01/27 14:46:55;;;;;;;17.80;7.87;;;;;;;1.09;100.00;100311.34;5342999;33;33109;-89
2023/01/27 14:50:15;;;;;;;15.90;9.07;;;;;;;1.00;100.00;100320.03;5343256;33;34257;-89
2023/01/27 14:53:36;;;;;;;;;;;;;;;0.96;100.00;100313.25;5335500;33;33949;-89
2023/01/27 14:56:54;;;;;;;13.05;7.45;;;;;;;0.86;100.00;100320.22;5343695;33;34771;-89
2023/01/27 15:00:15;;;;;;;16.62;8.05;;;;;;;0.92;100.00;100316.28;5342947;33;33612;-89
2023/01/27 15:03:45;;;;;;;14.18;8.10;;;;;;;0.87;100.00;100317.44;5343404;33;33518;-89
2023/01/27 15:06:53;;;;;;;14.95;8.43;;;;;;;0.87;100.00;100312.16;5344880;33;33593;-89
2023/01/27 15:10:16;;;;;;;16.30;8.30;;;;;;;0.95;100.00;100306.28;5359975;33;35212;-89
2023/01/27 15:13:34;;;;;;;15.63;7.97;;;;;;;0.94;100.00;100309.03;5345848;33;34650;-89
2023/01/27 15:16:53;;;;;;;12.60;7.28;;;;;;;0.98;100.00;100310.50;5344614;33;33925;-89
2023/01/27 15:20:07;;;;;;;17.83;9.23;;;;;;;0.83;100.00;100305.41;5347446;33;33622;-88
2023/01/27 15:23:45;;;;;;;14.55;8.32;;;;;;;0.89;100.00;100307.59;5346098;33;33935;-89
2023/01/27 15:26:48;;;;;;;16.17;9.05;;;;;;;0.83;100.00;100310.72;5349871;33;33378;-89
2023/01/27 15:29:51;;;;;;;17.40;8.95;;;;;;;0.78;100.00;100312.84;5348275;33;34395;-89
2023/01/27 15:32:55;;;;;;;18.52;8.15;;;;;;;0.87;100.00;100317.44;5353739;33;33546;-88
2023/01/27 15:36:18;;;;;;;18.02;9.07;;;;;;;0.83;100.00;100318.66;5352000;33;33635;-89
2023/01/27 15:39:21;;;;;;;16.37;8.57;;;;;;;0.86;100.00;100325.53;5354272;33;33742;-89
2023/01/27 15:43:01;;;;;;;16.35;8.45;;;;;;;0.81;100.00;100319.72;5353218;33;34076;-89
2023/01/27 15:46:32;;;;;;;15.27;8.77;;;;;;;0.80;100.00;100334.78;5355943;33;33711;-89
2023/01/27 15:49:47;;;;;;;17.67;8.90;;;;;;;0.85;100.00;100337.94;5355468;33;34868;-89
2023/01/27 15:52:51;;;;;;;17.05;8.73;;;;;;;0.88;100.00;100340.38;5357580;33;33559;-89
2023/01/27 15:55:57;;;;;;;14.20;7.82;;;;;;;0.95;100.00;100339.88;5359048;33;34273;-89
2023/01/27 15:59:04;;;;;;;11.32;7.50;;;;;;;0.91;100.00;100334.00;5358939;33;35010;-89
2023/01/27 16:02:17;;;;;;;14.75;7.68;;;;;;;0.93;100.00;100328.56;5358821;33;34920;-88
2023/01/27 16:05:25;;;;;;;17.77;7.62;;;;;;;0.87;100.00;100322.75;5352576;33;33173;-88
2023/01/27 16:08:40;;;;;;;16.55;8.07;;;;;;;0.87;100.00;100322.75;5354332;33;34723;-89
2023/01/27 16:11:58;;;;;;;13.20;7.05;;;;;;;0.92;100.00;100327.72;5348597;33;33896;-88
2023/01/27 16:15:00;;;;;;;16.62;7.40;;;;;;;0.94;100.00;100333.75;5346546;33;35426;-92
2023/01/27 16:18:07;;;;;;;12.80;7.50;;;;;;;0.93;100.00;100332.03;5349820;33;34491;-91
2023/01/27 16:21:46;;;;;;;15.45;7.57;;;;;;;0.95;100.00;100337.25;5352289;33;33559;-89
2023/01/27 16:24:54;;;;;;;12.47;6.87;;;;;;;0.90;100.00;100338.41;5344023;33;33389;-89
2023/01/27 16:28:13;;;;;;;17.05;8.35;;;;;;;0.86;100.00;100338.78;5348175;33;33030;-89
2023/01/27 16:31:23;;;;;;;14.25;7.82;;;;;;;0.90;100.00;100345.53;5344088;33;33602;-88
2023/01/27 16:34:40;;;;;;;13.85;7.05;;;;;;;0.99;100.00;100352.78;5342983;33;33967;-89
2023/01/27 16:38:00;;;;;;;19.27;9.15;;;;;;;1.02;100.00;100355.19;5342469;33;34298;-89
2023/01/27 16:41:14;;;;;;;16.77;7.40;;;;;;;0.90;100.00;100356.97;5344858;33;33163;-88
2023/01/27 16:44:21;;;;;;;14.80;7.65;;;;;;;0.99;100.00;100355.44;5343233;33;33640;-89
2023/01/27 16:47:42;;;;;;;16.00;7.53;;;;;;;0.96;100.00;100363.63;5342351;33;33774;-89
2023/01/27 16:50:45;;;;;;;13.70;7.78;;;;;;;0.94;100.00;100373.50;5344652;33;34904;-90
2023/01/27 16:53:49;;;;;;;14.98;7.75;;;;;;;0.95;100.00;100363.75;5345016;33;33909;-92
